createdAt,value
2024-01-22T00:00:58.565Z,0.56
2024-01-22T00:02:04.369Z,0.37
2024-01-22T00:03:06.544Z,0.39
2024-01-22T00:04:10.421Z,0.34
2024-01-22T00:05:12.472Z,0.23
2024-01-22T00:06:14.887Z,0.12
2024-01-22T00:07:17.041Z,0.25
2024-01-22T00:08:19.386Z,0.27
2024-01-22T00:09:21.530Z,0.13
2024-01-22T00:10:23.876Z,-0.05
2024-01-22T00:11:27.822Z,-0.07
2024-01-22T00:12:30.018Z,-0.05
2024-01-22T00:13:34.279Z,0.15
2024-01-22T00:14:36.686Z,0.05
2024-01-22T00:15:39.370Z,-0.02
2024-01-22T00:16:43.059Z,-0.08
2024-01-22T00:17:47.546Z,-0.10
2024-01-22T00:18:51.157Z,-0.11
2024-01-22T00:19:56.180Z,-0.15
2024-01-22T00:20:59.763Z,-0.20
2024-01-22T00:22:02.212Z,-0.16
2024-01-22T00:23:07.361Z,-0.09
2024-01-22T00:24:10.431Z,-0.01
2024-01-22T00:25:12.403Z,0.09
2024-01-22T00:26:14.812Z,-0.04
2024-01-22T00:27:19.023Z,-0.02
2024-01-22T00:28:21.639Z,-0.16
2024-01-22T00:29:26.839Z,-0.04
2024-01-22T00:30:30.129Z,-0.10
2024-01-22T00:31:34.918Z,-0.03
2024-01-22T00:32:38.269Z,0.01
2024-01-22T00:33:42.989Z,-0.03
2024-01-22T00:34:45.297Z,0.04
2024-01-22T00:35:47.775Z,0.04
2024-01-22T00:36:50.059Z,0.05
2024-01-22T00:37:52.144Z,-0.17
2024-01-22T00:38:54.179Z,0.06
2024-01-22T00:39:57.972Z,-0.13
2024-01-22T00:41:00.154Z,-0.30
2024-01-22T00:42:02.346Z,-0.30
2024-01-22T00:43:05.097Z,-0.24
2024-01-22T00:44:07.426Z,-0.34
2024-01-22T00:45:12.530Z,-0.38
2024-01-22T00:46:14.950Z,-0.34
2024-01-22T00:47:18.314Z,-0.27
2024-01-22T00:48:20.350Z,-0.16
2024-01-22T00:49:23.046Z,-0.16
2024-01-22T00:50:27.605Z,-0.11
2024-01-22T00:51:29.930Z,-0.16
2024-01-22T00:52:32.188Z,-0.07
2024-01-22T00:53:35.418Z,-0.01
2024-01-22T00:54:37.466Z,-0.08
2024-01-22T00:55:41.413Z,-0.18
2024-01-22T00:56:43.897Z,-0.15
2024-01-22T00:57:48.171Z,-0.14
2024-01-22T00:58:50.961Z,-0.21
2024-01-22T00:59:53.451Z,-0.13
2024-01-22T01:00:57.975Z,-0.24
2024-01-22T01:02:00.416Z,-0.38
2024-01-22T01:03:02.940Z,-0.25
2024-01-22T01:04:05.178Z,-0.40
2024-01-22T01:05:10.077Z,-0.41
2024-01-22T01:06:13.822Z,-0.58
2024-01-22T01:07:16.131Z,-0.60
2024-01-22T01:08:18.067Z,-0.50
2024-01-22T01:09:21.372Z,-0.49
2024-01-22T01:10:23.760Z,-0.41
2024-01-22T01:11:25.849Z,-0.66
2024-01-22T01:12:30.822Z,-0.63
2024-01-22T01:13:34.101Z,-0.55
2024-01-22T01:14:36.260Z,-0.62
2024-01-22T01:15:39.082Z,-0.94
2024-01-22T01:16:41.839Z,-1.23
2024-01-22T01:17:44.084Z,-0.89
2024-01-22T01:18:48.525Z,-0.63
2024-01-22T01:19:50.929Z,-0.49
2024-01-22T01:20:53.118Z,-0.58
2024-01-22T01:21:55.122Z,-0.60
2024-01-22T01:22:57.247Z,-0.66
2024-01-22T01:24:00.598Z,-0.62
2024-01-22T01:25:03.072Z,-0.72
2024-01-22T01:26:05.722Z,-0.84
2024-01-22T01:27:08.039Z,-0.50
2024-01-22T01:28:10.175Z,-0.42
2024-01-22T01:29:12.559Z,-0.34
2024-01-22T01:30:15.290Z,-0.30
2024-01-22T01:31:17.654Z,-0.35
2024-01-22T01:32:19.956Z,-0.29
2024-01-22T01:33:24.322Z,-0.19
2024-01-22T01:34:26.905Z,-0.35
2024-01-22T01:35:30.934Z,-0.56
2024-01-22T01:36:33.332Z,-0.61
2024-01-22T01:37:35.587Z,-0.46
2024-01-22T01:38:38.823Z,-0.38
2024-01-22T01:39:41.711Z,-0.38
2024-01-22T01:40:44.080Z,-0.32
2024-01-22T01:41:51.089Z,-0.20
2024-01-22T01:42:55.877Z,-0.13
2024-01-22T01:43:58.664Z,-0.17
2024-01-22T01:45:04.591Z,-0.10
2024-01-22T01:46:08.323Z,-0.10
2024-01-22T01:47:10.532Z,-0.01
2024-01-22T01:48:14.139Z,-0.04
2024-01-22T01:49:16.518Z,-0.19
2024-01-22T01:50:19.907Z,-0.12
2024-01-22T01:51:24.316Z,-0.22
2024-01-22T01:52:26.663Z,-0.23
2024-01-22T01:53:28.765Z,-0.35
2024-01-22T01:54:31.351Z,-0.41
2024-01-22T01:55:36.062Z,-0.57
2024-01-22T01:56:39.736Z,-0.38
2024-01-22T01:57:45.941Z,-0.35
2024-01-22T01:58:49.417Z,-0.30
2024-01-22T01:59:53.251Z,-0.27
2024-01-22T02:00:57.320Z,-0.21
2024-01-22T02:02:00.346Z,-0.19
2024-01-22T02:03:04.133Z,-0.16
2024-01-22T02:04:06.849Z,-0.20
2024-01-22T02:05:09.505Z,-0.24
2024-01-22T02:06:16.545Z,-0.28
2024-01-22T02:07:18.801Z,-0.41
2024-01-22T02:08:21.072Z,-0.54
2024-01-22T02:09:23.408Z,-0.40
2024-01-22T02:10:25.945Z,-0.33
2024-01-22T02:11:27.958Z,-0.35
2024-01-22T02:12:31.230Z,-0.25
2024-01-22T02:13:34.587Z,-0.36
2024-01-22T02:14:36.990Z,-0.30
2024-01-22T02:15:39.513Z,-0.20
2024-01-22T02:16:43.002Z,-0.30
2024-01-22T02:17:48.487Z,-0.29
2024-01-22T02:18:50.632Z,-0.19
2024-01-22T02:19:52.695Z,-0.29
2024-01-22T02:20:55.420Z,-0.39
2024-01-22T02:21:58.543Z,-0.17
2024-01-22T02:23:07.453Z,-0.11
2024-01-22T02:24:09.581Z,-0.12
2024-01-22T02:25:13.053Z,-0.26
2024-01-22T02:26:17.133Z,-0.25
2024-01-22T02:27:19.904Z,-0.30
2024-01-22T02:28:22.452Z,-0.34
2024-01-22T02:29:25.918Z,-0.44
2024-01-22T02:30:28.654Z,-0.47
2024-01-22T02:31:31.367Z,-0.38
2024-01-22T02:32:33.465Z,-0.38
2024-01-22T02:33:35.942Z,-0.39
2024-01-22T02:34:38.165Z,-0.40
2024-01-22T02:35:41.471Z,-0.31
2024-01-22T02:36:43.748Z,-0.33
2024-01-22T02:37:46.454Z,-0.26
2024-01-22T02:38:48.578Z,-0.44
2024-01-22T02:39:50.671Z,-0.38
2024-01-22T02:40:53.146Z,-0.44
2024-01-22T02:41:55.134Z,-0.48
2024-01-22T02:42:57.135Z,-0.46
2024-01-22T02:43:59.136Z,-0.33
2024-01-22T02:45:04.086Z,-0.42
2024-01-22T02:46:06.494Z,-0.46
2024-01-22T02:47:09.566Z,-0.36
2024-01-22T02:48:14.730Z,-0.33
2024-01-22T02:49:17.025Z,-0.47
2024-01-22T02:50:20.823Z,-0.59
2024-01-22T02:51:22.755Z,-0.55
2024-01-22T02:52:24.711Z,-0.42
2024-01-22T02:53:28.002Z,-0.60
2024-01-22T02:54:30.053Z,-0.66
2024-01-22T02:55:32.052Z,-0.57
2024-01-22T02:56:34.374Z,-0.56
2024-01-22T02:57:36.433Z,-0.61
2024-01-22T02:58:38.733Z,-0.48
2024-01-22T02:59:42.364Z,-0.56
2024-01-22T03:00:45.739Z,-0.57
2024-01-22T03:01:49.774Z,-0.52
2024-01-22T03:02:52.799Z,-0.53
2024-01-22T03:03:55.027Z,-0.46
2024-01-22T03:04:57.572Z,-0.52
2024-01-22T03:05:59.883Z,-0.35
2024-01-22T03:07:02.198Z,-0.43
2024-01-22T03:08:07.806Z,-0.43
2024-01-22T03:09:09.794Z,-0.47
2024-01-22T03:10:13.463Z,-0.46
2024-01-22T03:11:17.734Z,-0.48
2024-01-22T03:12:22.402Z,-0.52
2024-01-22T03:13:24.561Z,-0.57
2024-01-22T03:14:26.897Z,-0.55
2024-01-22T03:15:28.817Z,-0.52
2024-01-22T03:16:31.321Z,-0.49
2024-01-22T03:17:34.584Z,-0.47
2024-01-22T03:18:36.681Z,-0.45
2024-01-22T03:19:38.926Z,-0.57
2024-01-22T03:20:41.730Z,-0.57
2024-01-22T03:21:43.686Z,-0.45
2024-01-22T03:22:45.727Z,-0.48
2024-01-22T03:23:51.755Z,-0.51
2024-01-22T03:24:53.875Z,-0.58
2024-01-22T03:25:56.065Z,-0.55
2024-01-22T03:26:58.197Z,-0.47
2024-01-22T03:28:01.607Z,-0.50
2024-01-22T03:29:03.696Z,-0.42
2024-01-22T03:30:10.459Z,-0.44
2024-01-22T03:31:29.355Z,-0.60
2024-01-22T03:32:31.548Z,-0.50
2024-01-22T03:33:35.289Z,-0.47
2024-01-22T03:34:41.024Z,-0.47
2024-01-22T03:35:43.075Z,-0.47
2024-01-22T03:36:46.823Z,-0.47
2024-01-22T03:37:49.954Z,-0.49
2024-01-22T03:38:52.913Z,-0.66
2024-01-22T03:39:55.054Z,-0.75
2024-01-22T03:40:57.422Z,-0.77
2024-01-22T03:41:59.464Z,-0.68
2024-01-22T03:43:04.192Z,-0.69
2024-01-22T03:44:06.305Z,-0.96
2024-01-22T03:45:09.886Z,-0.69
2024-01-22T03:46:14.105Z,-0.64
2024-01-22T03:47:16.338Z,-1.08
2024-01-22T03:48:18.603Z,-1.44
2024-01-22T03:49:21.988Z,-1.70
2024-01-22T03:50:24.323Z,-1.31
2024-01-22T03:51:26.488Z,-1.05
2024-01-22T03:52:29.791Z,-0.92
2024-01-22T03:53:33.105Z,-0.97
2024-01-22T03:54:35.335Z,-0.83
2024-01-22T03:55:37.342Z,-1.07
2024-01-22T03:56:39.694Z,-0.93
2024-01-22T03:57:44.021Z,-1.07
2024-01-22T03:58:46.768Z,-0.77
2024-01-22T03:59:49.306Z,-0.79
2024-01-22T04:00:51.932Z,-0.78
2024-01-22T04:01:58.505Z,-0.65
2024-01-22T04:03:00.733Z,-0.75
2024-01-22T04:04:06.492Z,-0.60
2024-01-22T04:05:11.499Z,-0.56
2024-01-22T04:06:15.226Z,-0.52
2024-01-22T04:07:17.673Z,-0.70
2024-01-22T04:08:20.883Z,-1.63
2024-01-22T04:09:23.589Z,-1.15
2024-01-22T04:10:25.983Z,-0.79
2024-01-22T04:11:29.371Z,-0.70
2024-01-22T04:12:31.456Z,-0.75
2024-01-22T04:13:35.660Z,-0.59
2024-01-22T04:14:41.582Z,-0.59
2024-01-22T04:15:44.662Z,-0.59
2024-01-22T04:16:47.062Z,-0.59
2024-01-22T04:17:49.740Z,-0.97
2024-01-22T04:18:52.286Z,-0.80
2024-01-22T04:19:54.525Z,-0.77
2024-01-22T04:20:57.127Z,-0.68
2024-01-22T04:21:59.251Z,-0.70
2024-01-22T04:23:01.350Z,-0.74
2024-01-22T04:24:05.854Z,-0.65
2024-01-22T04:25:11.616Z,-0.66
2024-01-22T04:26:14.154Z,-0.65
2024-01-22T04:27:16.280Z,-0.56
2024-01-22T04:28:18.725Z,-0.56
2024-01-22T04:29:22.023Z,-0.40
2024-01-22T04:30:24.401Z,-0.40
2024-01-22T04:31:28.716Z,-0.42
2024-01-22T04:32:31.072Z,-0.49
2024-01-22T04:33:34.171Z,-0.56
2024-01-22T04:34:38.374Z,-0.51
2024-01-22T04:35:41.848Z,-0.58
2024-01-22T04:36:44.291Z,-0.98
2024-01-22T04:37:46.782Z,-0.68
2024-01-22T04:38:50.855Z,-0.60
2024-01-22T04:39:52.907Z,-1.57
2024-01-22T04:41:00.102Z,-1.20
2024-01-22T04:42:04.401Z,-0.86
2024-01-22T04:43:06.806Z,-0.96
2024-01-22T04:44:09.411Z,-0.95
2024-01-22T04:45:12.723Z,-1.44
2024-01-22T04:46:14.928Z,-1.01
2024-01-22T04:47:16.856Z,-0.88
2024-01-22T04:48:18.812Z,-0.80
2024-01-22T04:49:21.004Z,-0.74
2024-01-22T04:50:24.853Z,-0.80
2024-01-22T04:51:29.309Z,-0.99
2024-01-22T04:52:31.660Z,-1.00
2024-01-22T04:53:35.288Z,-1.33
2024-01-22T04:54:39.578Z,-1.08
2024-01-22T04:55:44.492Z,-0.91
2024-01-22T04:56:48.710Z,-0.92
2024-01-22T04:57:50.994Z,-0.74
2024-01-22T04:58:53.494Z,-0.90
2024-01-22T04:59:57.795Z,-1.23
2024-01-22T05:01:00.570Z,-1.02
2024-01-22T05:02:02.896Z,-1.03
2024-01-22T05:03:05.321Z,-1.02
2024-01-22T05:04:07.757Z,-0.77
2024-01-22T05:05:10.090Z,-0.86
2024-01-22T05:06:12.408Z,-0.94
2024-01-22T05:07:14.487Z,-0.84
2024-01-22T05:08:18.793Z,-0.86
2024-01-22T05:09:22.213Z,-0.98
2024-01-22T05:10:25.248Z,-0.83
2024-01-22T05:11:27.299Z,-0.71
2024-01-22T05:12:30.806Z,-0.63
2024-01-22T05:13:34.998Z,-0.76
2024-01-22T05:14:38.907Z,-0.79
2024-01-22T05:15:42.461Z,-1.38
2024-01-22T05:16:44.702Z,-0.94
2024-01-22T05:17:47.205Z,-0.59
2024-01-22T05:18:51.657Z,-0.58
2024-01-22T05:19:53.852Z,-0.54
2024-01-22T05:20:56.091Z,-0.56
2024-01-22T05:22:00.048Z,-0.54
2024-01-22T05:23:01.989Z,-0.84
2024-01-22T05:24:05.509Z,-0.57
2024-01-22T05:25:07.582Z,-0.45
2024-01-22T05:26:10.002Z,-0.55
2024-01-22T05:27:13.032Z,-0.49
2024-01-22T05:28:15.439Z,-0.56
2024-01-22T05:29:17.457Z,-0.61
2024-01-22T05:30:22.139Z,-0.48
2024-01-22T05:31:24.170Z,-0.88
2024-01-22T05:32:26.105Z,-0.66
2024-01-22T05:33:29.438Z,-0.71
2024-01-22T05:34:31.570Z,-0.90
2024-01-22T05:35:36.664Z,-1.50
2024-01-22T05:36:38.897Z,-0.85
2024-01-22T05:37:41.201Z,-0.79
2024-01-22T05:38:44.314Z,-1.41
2024-01-22T05:39:46.582Z,-0.90
2024-01-22T05:40:48.883Z,-0.63
2024-01-22T05:41:51.555Z,-0.66
2024-01-22T05:42:53.928Z,-0.80
2024-01-22T05:43:57.693Z,-0.80
2024-01-22T05:45:00.370Z,-0.66
2024-01-22T05:46:04.236Z,-1.11
2024-01-22T05:47:06.279Z,-1.21
2024-01-22T05:48:11.213Z,-1.05
2024-01-22T05:49:14.878Z,-0.88
2024-01-22T05:50:17.244Z,-0.29
2024-01-22T05:51:21.400Z,-0.11
2024-01-22T05:52:23.726Z,0.09
2024-01-22T05:53:25.856Z,0.05
2024-01-22T05:54:27.832Z,-0.58
2024-01-22T05:55:30.077Z,-0.70
2024-01-22T05:56:32.771Z,-1.11
2024-01-22T05:57:34.933Z,-0.95
2024-01-22T05:58:37.097Z,-0.75
2024-01-22T05:59:39.315Z,-0.51
2024-01-22T06:00:41.621Z,-0.80
2024-01-22T06:01:47.767Z,-0.51
2024-01-22T06:02:49.800Z,-0.56
2024-01-22T06:03:53.317Z,-0.19
2024-01-22T06:04:58.064Z,-0.48
2024-01-22T06:06:00.223Z,-0.47
2024-01-22T06:07:05.668Z,-0.24
2024-01-22T06:08:06.377Z,-0.26
2024-01-22T06:09:08.293Z,-0.26
2024-01-22T06:10:10.916Z,-0.29
2024-01-22T06:11:16.265Z,-0.27
2024-01-22T06:12:18.570Z,-0.29
2024-01-22T06:13:21.572Z,-0.29
2024-01-22T06:14:24.061Z,-0.41
2024-01-22T06:15:26.083Z,-0.33
2024-01-22T06:16:28.603Z,-0.26
2024-01-22T06:17:32.766Z,-0.26
2024-01-22T06:18:36.451Z,-0.14
2024-01-22T06:19:38.948Z,-0.38
2024-01-22T06:20:42.842Z,-0.23
2024-01-22T06:21:45.090Z,-0.28
2024-01-22T06:22:48.552Z,-0.43
2024-01-22T06:23:50.775Z,-0.62
2024-01-22T06:24:52.954Z,-0.25
2024-01-22T06:25:55.448Z,-0.18
2024-01-22T06:26:57.904Z,-0.22
2024-01-22T06:28:00.062Z,-0.08
2024-01-22T06:29:02.273Z,-0.09
2024-01-22T06:30:05.947Z,-0.15
2024-01-22T06:31:10.296Z,-0.21
2024-01-22T06:32:13.404Z,-0.15
2024-01-22T06:33:15.429Z,-0.33
2024-01-22T06:34:18.388Z,-0.57
2024-01-22T06:35:22.377Z,-0.55
2024-01-22T06:36:24.882Z,-0.87
2024-01-22T06:37:29.283Z,-0.48
2024-01-22T06:38:31.269Z,-0.28
2024-01-22T06:39:35.200Z,-0.21
2024-01-22T06:40:38.991Z,-0.23
2024-01-22T06:41:42.274Z,-0.29
2024-01-22T06:42:44.707Z,-0.18
2024-01-22T06:43:47.856Z,0.00
2024-01-22T06:44:49.826Z,-0.10
2024-01-22T06:45:52.441Z,-0.17
2024-01-22T06:46:54.791Z,-0.40
2024-01-22T06:47:58.093Z,-0.12
2024-01-22T06:49:01.985Z,-0.80
2024-01-22T06:50:05.915Z,-1.14
2024-01-22T06:51:11.567Z,-0.47
2024-01-22T06:52:14.811Z,-0.11
2024-01-22T06:53:16.956Z,-0.39
2024-01-22T06:54:20.850Z,-0.26
2024-01-22T06:55:23.696Z,-0.25
2024-01-22T06:56:26.261Z,-0.20
2024-01-22T06:57:28.394Z,-0.19
2024-01-22T06:58:33.347Z,-0.08
2024-01-22T06:59:39.452Z,-0.08
2024-01-22T07:00:42.222Z,-0.09
2024-01-22T07:01:47.294Z,0.12
2024-01-22T07:02:49.391Z,0.23
2024-01-22T07:03:54.124Z,0.23
2024-01-22T07:04:56.134Z,0.19
2024-01-22T07:06:00.914Z,0.06
2024-01-22T07:07:05.527Z,-0.38
2024-01-22T07:08:13.368Z,-0.19
2024-01-22T07:09:15.660Z,-0.07
2024-01-22T07:10:18.324Z,0.24
2024-01-22T07:11:20.664Z,0.03
2024-01-22T07:12:24.871Z,0.07
2024-01-22T07:13:28.393Z,-0.27
2024-01-22T07:14:30.401Z,-0.61
2024-01-22T07:15:32.917Z,-0.19
2024-01-22T07:16:37.958Z,-0.47
2024-01-22T07:17:40.930Z,-0.22
2024-01-22T07:18:44.052Z,-0.46
2024-01-22T07:19:46.686Z,-0.83
2024-01-22T07:20:49.012Z,-0.31
2024-01-22T07:21:51.101Z,-0.73
2024-01-22T07:22:56.245Z,-0.67
2024-01-22T07:23:58.321Z,-0.43
2024-01-22T07:25:00.597Z,-0.81
2024-01-22T07:26:05.307Z,-1.02
2024-01-22T07:27:07.384Z,-0.91
2024-01-22T07:28:09.331Z,-0.74
2024-01-22T07:29:11.598Z,-0.41
2024-01-22T07:30:14.969Z,-0.33
2024-01-22T07:31:17.203Z,-0.10
2024-01-22T07:32:19.213Z,-0.27
2024-01-22T07:33:22.739Z,-0.16
2024-01-22T07:34:24.951Z,0.01
2024-01-22T07:35:27.775Z,0.26
2024-01-22T07:36:30.018Z,0.33
2024-01-22T07:37:31.973Z,-0.27
2024-01-22T07:38:33.977Z,-0.49
2024-01-22T07:39:36.071Z,-0.21
2024-01-22T07:40:38.316Z,-0.45
2024-01-22T07:41:40.279Z,-0.20
2024-01-22T07:42:42.973Z,0.10
2024-01-22T07:43:45.249Z,0.27
2024-01-22T07:44:51.446Z,-0.27
2024-01-22T07:45:55.834Z,0.13
2024-01-22T07:47:00.261Z,0.58
2024-01-22T07:48:03.283Z,0.69
2024-01-22T07:49:05.786Z,0.94
2024-01-22T07:50:10.247Z,0.64
2024-01-22T07:51:12.351Z,0.47
2024-01-22T07:52:16.450Z,-0.08
2024-01-22T07:53:19.406Z,0.47
2024-01-22T07:54:25.607Z,0.75
2024-01-22T07:55:31.640Z,0.48
2024-01-22T07:56:33.859Z,0.34
2024-01-22T07:57:37.869Z,0.51
2024-01-22T07:58:39.906Z,0.58
2024-01-22T07:59:44.634Z,-0.13
2024-01-22T08:00:47.184Z,-0.24
2024-01-22T08:01:49.361Z,0.14
2024-01-22T08:02:51.765Z,-0.32
2024-01-22T08:03:54.474Z,0.08
2024-01-22T08:04:58.748Z,0.24
2024-01-22T08:06:01.347Z,0.49
2024-01-22T08:07:05.452Z,0.63
2024-01-22T08:08:09.708Z,0.67
2024-01-22T08:09:12.973Z,0.81
2024-01-22T08:10:16.057Z,0.93
2024-01-22T08:11:18.436Z,0.73
2024-01-22T08:12:20.555Z,0.16
2024-01-22T08:13:24.708Z,0.15
2024-01-22T08:14:26.656Z,-0.05
2024-01-22T08:15:29.451Z,0.71
2024-01-22T08:16:32.550Z,0.93
2024-01-22T08:17:34.732Z,0.98
2024-01-22T08:18:37.131Z,1.19
2024-01-22T08:19:40.511Z,1.11
2024-01-22T08:20:43.399Z,1.15
2024-01-22T08:21:45.734Z,1.26
2024-01-22T08:22:48.856Z,1.32
2024-01-22T08:23:51.163Z,1.44
2024-01-22T08:24:55.401Z,1.30
2024-01-22T08:25:57.551Z,0.42
2024-01-22T08:27:02.055Z,0.11
2024-01-22T08:28:05.445Z,-0.18
2024-01-22T08:29:07.507Z,0.02
2024-01-22T08:30:12.554Z,0.47
2024-01-22T08:31:14.629Z,0.49
2024-01-22T08:32:18.515Z,0.56
2024-01-22T08:33:20.855Z,0.87
2024-01-22T08:34:23.596Z,0.31
2024-01-22T08:35:26.069Z,0.59
2024-01-22T08:36:28.226Z,-0.19
2024-01-22T08:37:30.662Z,0.44
2024-01-22T08:38:35.422Z,0.52
2024-01-22T08:39:37.719Z,0.53
2024-01-22T08:40:42.702Z,0.08
2024-01-22T08:41:44.902Z,0.34
2024-01-22T08:42:52.768Z,0.61
2024-01-22T08:43:56.389Z,0.47
2024-01-22T08:44:59.510Z,0.64
2024-01-22T08:46:03.512Z,0.47
2024-01-22T08:47:07.754Z,0.83
2024-01-22T08:48:11.368Z,0.36
2024-01-22T08:49:13.578Z,0.06
2024-01-22T08:50:16.811Z,0.42
2024-01-22T08:51:20.202Z,0.45
2024-01-22T08:52:22.318Z,0.08
2024-01-22T08:53:24.770Z,-0.06
2024-01-22T08:54:28.047Z,0.37
2024-01-22T08:55:31.590Z,0.17
2024-01-22T08:56:35.331Z,0.08
2024-01-22T08:57:38.792Z,0.27
2024-01-22T08:58:41.401Z,-0.17
2024-01-22T08:59:51.722Z,-0.05
2024-01-22T09:00:57.803Z,0.22
2024-01-22T09:02:04.004Z,0.19
2024-01-22T09:03:08.242Z,0.01
2024-01-22T09:04:11.325Z,-0.16
2024-01-22T09:05:52.974Z,-0.13
2024-01-22T09:06:57.684Z,0.03
2024-01-22T09:08:01.632Z,0.73
2024-01-22T09:09:05.654Z,0.82
2024-01-22T09:10:11.709Z,0.77
2024-01-22T09:11:14.449Z,0.87
2024-01-22T09:12:18.093Z,1.00
2024-01-22T09:13:21.421Z,0.96
2024-01-22T09:14:24.255Z,1.25
2024-01-22T09:15:26.394Z,1.04
2024-01-22T09:16:29.469Z,1.14
2024-01-22T09:17:31.771Z,0.90
2024-01-22T09:18:35.650Z,0.95
2024-01-22T09:19:38.227Z,1.02
2024-01-22T09:20:41.205Z,0.89
2024-01-22T09:21:46.850Z,0.87
2024-01-22T09:22:49.061Z,0.98
2024-01-22T09:23:51.886Z,1.26
2024-01-22T09:24:55.258Z,1.41
2024-01-22T09:25:58.281Z,1.00
2024-01-22T09:27:01.779Z,1.27
2024-01-22T09:28:04.757Z,1.37
2024-01-22T09:29:06.820Z,1.35
2024-01-22T09:30:10.806Z,0.87
2024-01-22T09:31:12.976Z,1.54
2024-01-22T09:32:16.719Z,1.59
2024-01-22T09:33:22.456Z,0.78
2024-01-22T09:34:26.023Z,1.02
2024-01-22T09:35:28.090Z,0.88
2024-01-22T09:36:32.180Z,1.29
2024-01-22T09:37:35.403Z,1.41
2024-01-22T09:38:41.860Z,1.12
2024-01-22T09:39:47.116Z,1.18
2024-01-22T09:40:51.583Z,0.65
2024-01-22T09:41:54.648Z,1.18
2024-01-22T09:42:57.171Z,0.52
2024-01-22T09:44:00.749Z,1.14
2024-01-22T09:45:06.204Z,1.17
2024-01-22T09:46:10.998Z,1.28
2024-01-22T09:47:13.628Z,1.00
2024-01-22T09:48:17.260Z,1.49
2024-01-22T09:49:20.278Z,1.62
2024-01-22T09:50:22.752Z,1.07
2024-01-22T09:51:28.101Z,1.60
2024-01-22T09:52:33.896Z,1.75
2024-01-22T09:53:36.647Z,1.61
2024-01-22T09:54:42.017Z,1.33
2024-01-22T09:55:47.002Z,1.35
2024-01-22T09:56:52.374Z,1.28
2024-01-22T09:57:59.124Z,1.10
2024-01-22T09:59:05.063Z,1.52
2024-01-22T10:00:12.576Z,1.62
2024-01-22T10:01:17.013Z,1.24
2024-01-22T10:02:20.236Z,1.29
2024-01-22T10:03:24.937Z,1.51
2024-01-22T10:04:27.372Z,1.34
2024-01-22T10:05:31.949Z,0.99
2024-01-22T10:06:34.994Z,1.31
2024-01-22T10:07:37.101Z,1.39
2024-01-22T10:08:39.119Z,1.37
2024-01-22T10:09:44.669Z,1.31
2024-01-22T10:10:47.793Z,1.25
2024-01-22T10:11:50.799Z,1.37
2024-01-22T10:13:01.802Z,1.08
2024-01-22T10:14:03.776Z,1.20
2024-01-22T10:15:15.089Z,1.30
2024-01-22T10:16:20.621Z,1.57
2024-01-22T10:17:23.512Z,1.64
2024-01-22T10:18:26.709Z,1.57
2024-01-22T10:19:30.779Z,1.01
2024-01-22T10:20:34.278Z,1.16
2024-01-22T10:21:41.575Z,1.47
2024-01-22T10:22:44.766Z,1.26
2024-01-22T10:23:59.743Z,1.29
2024-01-22T10:25:03.070Z,1.45
2024-01-22T10:26:06.969Z,1.13
2024-01-22T10:27:16.415Z,1.08
2024-01-22T10:28:19.134Z,1.33
2024-01-22T10:29:21.700Z,1.47
2024-01-22T10:30:24.655Z,1.32
2024-01-22T10:31:27.146Z,1.35
2024-01-22T10:32:29.213Z,1.41
2024-01-22T10:33:32.699Z,0.77
2024-01-22T10:34:48.810Z,0.35
2024-01-22T10:35:51.039Z,0.86
2024-01-22T10:37:12.426Z,0.58
2024-01-22T10:38:17.069Z,0.95
2024-01-22T10:39:19.619Z,0.77
2024-01-22T10:40:25.626Z,1.28
2024-01-22T10:41:27.829Z,0.97
2024-01-22T10:42:31.289Z,1.25
2024-01-22T10:43:34.305Z,1.41
2024-01-22T10:44:38.233Z,1.24
2024-01-22T10:45:41.788Z,1.07
2024-01-22T10:46:46.379Z,1.15
2024-01-22T10:47:50.628Z,1.20
2024-01-22T10:48:55.747Z,1.52
2024-01-22T10:50:01.770Z,1.23
2024-01-22T10:51:05.466Z,1.78
2024-01-22T10:52:10.048Z,1.27
2024-01-22T10:53:12.442Z,1.27
2024-01-22T10:54:14.689Z,1.67
2024-01-22T10:55:18.034Z,1.59
2024-01-22T10:56:27.995Z,1.39
2024-01-22T10:57:34.438Z,1.14
2024-01-22T10:58:42.497Z,1.46
2024-01-22T10:59:51.724Z,1.18
2024-01-22T11:01:00.486Z,1.22
2024-01-22T11:02:07.674Z,1.59
2024-01-22T11:03:14.092Z,1.27
2024-01-22T11:04:20.956Z,1.73
2024-01-22T11:05:28.045Z,1.99
2024-01-22T11:06:35.649Z,1.80
2024-01-22T11:07:40.292Z,1.80
2024-01-22T11:08:47.139Z,1.90
2024-01-22T11:09:57.868Z,1.93
2024-01-22T11:11:00.110Z,1.68
2024-01-22T11:12:10.725Z,1.01
2024-01-22T11:13:14.380Z,1.33
2024-01-22T11:14:17.563Z,1.18
2024-01-22T11:15:19.880Z,1.35
2024-01-22T11:16:25.515Z,1.37
2024-01-22T11:17:28.468Z,1.41
2024-01-22T11:18:30.713Z,1.45
2024-01-22T11:19:34.488Z,0.51
2024-01-22T11:20:38.642Z,0.86
2024-01-22T11:21:41.519Z,0.91
2024-01-22T11:23:02.465Z,1.03
2024-01-22T11:24:15.777Z,1.20
2024-01-22T11:25:20.932Z,1.03
2024-01-22T11:26:24.200Z,0.35
2024-01-22T11:27:41.663Z,0.98
2024-01-22T11:29:04.657Z,1.03
2024-01-22T11:30:28.075Z,1.15
2024-01-22T11:31:30.296Z,0.60
2024-01-22T11:32:32.772Z,1.13
2024-01-22T11:33:35.570Z,1.22
2024-01-22T11:34:45.015Z,1.39
2024-01-22T11:35:46.841Z,0.63
2024-01-22T11:36:55.159Z,0.88
2024-01-22T11:37:58.215Z,1.23
2024-01-22T11:39:00.419Z,1.34
2024-01-22T11:40:05.735Z,1.31
2024-01-22T11:41:09.326Z,1.52
2024-01-22T11:42:22.426Z,1.51
2024-01-22T11:43:27.998Z,1.31
2024-01-22T11:44:32.538Z,1.60
2024-01-22T11:45:41.852Z,1.01
2024-01-22T11:46:41.254Z,1.05
2024-01-22T11:47:46.259Z,0.50
2024-01-22T11:48:53.141Z,0.96
2024-01-22T11:50:01.394Z,0.88
2024-01-22T11:51:08.465Z,0.73
2024-01-22T11:52:13.376Z,1.04
2024-01-22T11:53:15.403Z,1.04
2024-01-22T11:54:17.860Z,0.87
2024-01-22T11:55:22.906Z,0.70
2024-01-22T11:56:26.179Z,0.76
2024-01-22T11:57:35.081Z,0.68
2024-01-22T11:58:37.157Z,0.72
2024-01-22T11:59:39.883Z,0.33
2024-01-22T12:00:43.504Z,0.42
2024-01-22T12:01:50.630Z,0.01
2024-01-22T12:02:52.933Z,0.31
2024-01-22T12:03:57.640Z,0.11
2024-01-22T12:05:08.240Z,0.30
2024-01-22T12:06:11.165Z,0.10
2024-01-22T12:07:14.307Z,0.46
2024-01-22T12:08:16.484Z,-0.29
2024-01-22T12:09:18.505Z,-0.27
2024-01-22T12:10:25.597Z,0.17
2024-01-22T12:11:31.702Z,0.02
2024-01-22T12:12:33.638Z,0.33
2024-01-22T12:13:40.582Z,0.27
2024-01-22T12:14:42.688Z,0.12
2024-01-22T12:15:47.962Z,0.37
2024-01-22T12:17:01.304Z,0.59
2024-01-22T12:18:05.012Z,-0.02
2024-01-22T12:19:13.144Z,-0.09
2024-01-22T12:20:18.447Z,0.32
2024-01-22T12:21:21.036Z,0.63
2024-01-22T12:22:27.189Z,0.64
2024-01-22T12:23:31.132Z,0.74
2024-01-22T12:24:33.120Z,0.10
2024-01-22T12:25:38.098Z,0.09
2024-01-22T12:26:42.457Z,-0.04
2024-01-22T12:27:44.525Z,0.03
2024-01-22T12:28:53.514Z,-0.68
2024-01-22T12:30:08.013Z,-0.35
2024-01-22T12:31:10.248Z,-0.16
2024-01-22T12:32:14.755Z,-0.41
2024-01-22T12:33:24.020Z,0.20
2024-01-22T12:34:29.074Z,0.06
2024-01-22T12:35:32.307Z,-0.13
2024-01-22T12:36:36.290Z,0.04
2024-01-22T12:37:38.239Z,0.26
2024-01-22T12:38:49.722Z,0.54
2024-01-22T12:40:09.299Z,0.45
2024-01-22T12:41:15.166Z,-0.26
2024-01-22T12:42:20.442Z,0.14
2024-01-22T12:43:25.762Z,-0.14
2024-01-22T12:44:28.968Z,-0.14
2024-01-22T12:45:31.201Z,0.21
2024-01-22T12:46:35.106Z,-0.40
2024-01-22T12:47:37.644Z,-0.39
2024-01-22T12:48:41.081Z,0.47
2024-01-22T12:49:44.608Z,0.24
2024-01-22T12:50:47.183Z,0.26
2024-01-22T12:51:49.675Z,0.51
2024-01-22T12:52:53.676Z,0.53
2024-01-22T12:53:56.911Z,0.51
2024-01-22T12:54:59.647Z,0.17
2024-01-22T12:56:03.102Z,0.58
2024-01-22T12:57:06.030Z,0.57
2024-01-22T12:58:11.719Z,-0.19
2024-01-22T12:59:14.105Z,0.15
2024-01-22T13:00:18.571Z,-0.24
2024-01-22T13:01:23.546Z,0.34
2024-01-22T13:02:29.382Z,0.23
2024-01-22T13:03:31.824Z,0.56
2024-01-22T13:04:40.373Z,-0.23
2024-01-22T13:05:43.775Z,0.25
2024-01-22T13:06:46.046Z,0.51
2024-01-22T13:07:48.768Z,0.62
2024-01-22T13:08:53.856Z,-0.26
2024-01-22T13:09:57.859Z,-0.26
2024-01-22T13:11:00.244Z,0.23
2024-01-22T13:12:04.309Z,-0.44
2024-01-22T13:13:06.750Z,0.14
2024-01-22T13:14:08.740Z,-0.09
2024-01-22T13:15:11.179Z,-0.44
2024-01-22T13:16:17.583Z,-0.28
2024-01-22T13:17:19.124Z,0.16
2024-01-22T13:18:21.562Z,0.43
2024-01-22T13:19:24.029Z,0.29
2024-01-22T13:20:29.927Z,0.44
2024-01-22T13:21:32.779Z,0.57
2024-01-22T13:22:36.166Z,0.19
2024-01-22T13:23:38.527Z,0.32
2024-01-22T13:24:40.564Z,0.13
2024-01-22T13:25:43.433Z,0.18
2024-01-22T13:26:45.694Z,-0.58
2024-01-22T13:27:48.991Z,-0.06
2024-01-22T13:28:51.508Z,-0.23
2024-01-22T13:29:54.762Z,0.20
2024-01-22T13:30:57.301Z,0.15
2024-01-22T13:31:59.585Z,0.11
2024-01-22T13:33:02.042Z,0.13
2024-01-22T13:34:04.496Z,-0.20
2024-01-22T13:35:08.548Z,-0.19
2024-01-22T13:36:11.482Z,0.23
2024-01-22T13:37:14.722Z,0.16
2024-01-22T13:38:17.454Z,0.04
2024-01-22T13:39:20.642Z,0.40
2024-01-22T13:40:25.732Z,0.56
2024-01-22T13:41:27.815Z,0.47
2024-01-22T13:42:30.330Z,0.32
2024-01-22T13:43:34.974Z,-0.22
2024-01-22T13:44:37.108Z,0.16
2024-01-22T13:45:39.250Z,0.16
2024-01-22T13:46:42.606Z,-0.02
2024-01-22T13:47:44.655Z,0.21
2024-01-22T13:48:49.988Z,0.31
2024-01-22T13:49:51.569Z,-0.53
2024-01-22T13:50:55.931Z,-0.38
2024-01-22T13:51:58.374Z,-0.33
2024-01-22T13:53:05.186Z,0.06